Time;durP1;ratioP1;P1;durP2;ratioP2;P2;SDS_P1;SDS_P2;PMS_P1;PMS_P2;Temp;Humidity;BMP_temperature;BMP_pressure;BME280_temperature;BME280_humidity;BME280_pressure;Samples;Min_cycle;Max_cycle;Signal;HPM_P1;HPM_P2
2021/01/16 00:01:37;;;;;;;16.70;12.03;;;;;;;-0.92;100.00;151136.22;5023853;28;20442;-77
2021/01/16 00:04:12;;;;;;;15.80;10.00;;;;;;;-0.95;100.00;151128.50;5078327;28;20791;-77
2021/01/16 00:06:47;;;;;;;15.97;10.50;;;;;;;-0.91;100.00;151138.78;5077768;28;20539;-77
2021/01/16 00:09:22;;;;;;;15.30;10.00;;;;;;;-0.90;100.00;151141.38;5063547;28;20456;-77
2021/01/16 00:11:58;;;;;;;17.33;10.87;;;;;;;-0.95;100.00;151129.81;5067785;28;20444;-77
2021/01/16 00:14:34;;;;;;;17.00;10.30;;;;;;;-0.94;100.00;151131.09;5078525;28;20419;-77
2021/01/16 00:17:09;;;;;;;14.50;10.47;;;;;;;-0.94;100.00;151131.09;5071441;28;20501;-77
2021/01/16 00:19:44;;;;;;;15.27;10.80;;;;;;;-0.95;100.00;151129.81;5010669;28;20447;-77
2021/01/16 00:22:20;;;;;;;15.70;10.80;;;;;;;-0.92;100.00;151136.22;5070997;28;20946;-77
2021/01/16 00:24:58;;;;;;;16.37;10.40;;;;;;;-0.91;100.00;151138.78;5019170;28;21009;-77
2021/01/16 00:27:33;;;;;;;16.13;10.60;;;;;;;-0.95;100.00;151129.81;5072587;27;20453;-77
2021/01/16 00:30:11;;;;;;;14.90;11.43;;;;;;;-0.97;100.00;151124.69;5078394;28;20445;-77
2021/01/16 00:32:46;;;;;;;17.03;11.87;;;;;;;-0.94;100.00;151131.09;5077544;28;20450;-77
2021/01/16 00:35:23;;;;;;;18.67;11.57;;;;;;;-0.98;100.00;151120.88;5077935;28;20855;-77
2021/01/16 00:37:58;;;;;;;17.63;11.30;;;;;;;-0.99;100.00;151118.28;5049327;28;20563;-77
2021/01/16 00:40:34;;;;;;;17.50;10.60;;;;;;;-0.99;100.00;151118.28;5025588;28;20858;-77
2021/01/16 00:43:12;;;;;;;16.93;11.37;;;;;;;-1.03;100.00;151108.06;5093570;28;20444;-77
2021/01/16 00:45:49;;;;;;;18.40;12.50;;;;;;;-1.02;100.00;151111.88;5095178;28;20774;-77
2021/01/16 00:48:25;;;;;;;13.23;9.73;;;;;;;-0.99;100.00;151118.28;5060888;28;20457;-77
2021/01/16 00:51:04;;;;;;;16.00;10.73;;;;;;;-1.03;100.00;151109.28;4992067;28;20836;-77
2021/01/16 00:53:46;;;;;;;16.23;11.17;;;;;;;-0.99;100.00;151119.56;5077502;28;20444;-77
2021/01/16 00:56:22;;;;;;;18.67;11.73;;;;;;;-0.97;100.00;151123.41;5075502;28;20483;-77
2021/01/16 00:59:14;;;;;;;13.70;10.33;;;;;;;-1.01;100.00;151113.16;5077125;28;20990;-77
2021/01/16 01:02:02;;;;;;;16.60;11.17;;;;;;;-1.04;100.00;151105.47;5062624;28;20844;-77
2021/01/16 01:04:37;;;;;;;16.90;10.70;;;;;;;-1.06;100.00;151100.34;5079444;28;20468;-77
2021/01/16 01:07:13;;;;;;;14.33;10.83;;;;;;;-1.04;100.00;151105.47;5066794;28;20447;-77
2021/01/16 01:09:48;;;;;;;15.07;11.03;;;;;;;-1.03;100.00;151108.06;5077754;28;20451;-77
2021/01/16 01:12:23;;;;;;;13.17;10.43;;;;;;;-1.06;100.00;151100.34;5077774;28;20448;-77
2021/01/16 01:14:59;;;;;;;14.47;9.90;;;;;;;-1.03;100.00;151108.06;5077504;28;20449;-77
2021/01/16 01:17:35;;;;;;;17.77;11.20;;;;;;;-1.03;100.00;151108.06;5064336;28;20518;-78
2021/01/16 01:20:12;;;;;;;15.73;10.13;;;;;;;-1.02;100.00;151111.88;5084124;28;20423;-77
2021/01/16 01:22:47;;;;;;;16.07;10.47;;;;;;;-1.00;100.00;151115.69;5082118;28;20450;-77
2021/01/16 01:25:23;;;;;;;15.27;10.30;;;;;;;-1.02;100.00;151111.88;5096242;28;20536;-77
2021/01/16 01:28:00;;;;;;;17.90;10.40;;;;;;;-1.01;100.00;151113.16;5073082;28;20428;-77
2021/01/16 01:30:35;;;;;;;18.00;9.87;;;;;;;-1.02;100.00;151110.59;5065860;28;20798;-76
2021/01/16 01:33:16;;;;;;;15.93;10.63;;;;;;;-1.04;100.00;151106.75;5012503;28;20441;-77
2021/01/16 01:35:51;;;;;;;16.37;10.37;;;;;;;-1.02;100.00;151111.88;5013127;28;20450;-77
2021/01/16 01:38:27;;;;;;;14.40;11.67;;;;;;;-1.01;100.00;151113.16;5061679;28;20461;-76
2021/01/16 01:41:02;;;;;;;12.37;9.57;;;;;;;-1.03;100.00;151108.06;5079988;28;20792;-76
2021/01/16 01:43:38;;;;;;;16.13;10.53;;;;;;;-1.02;100.00;151110.59;5081540;28;20440;-77
2021/01/16 01:46:13;;;;;;;15.80;11.40;;;;;;;-1.00;100.00;151115.69;5064785;28;20804;-77
2021/01/16 01:48:53;;;;;;;17.43;11.33;;;;;;;-1.03;100.00;151108.06;5012603;28;20527;-76
2021/01/16 01:51:33;;;;;;;19.47;10.87;;;;;;;-1.03;100.00;151109.28;5093105;28;20442;-77
2021/01/16 01:54:09;;;;;;;16.17;10.30;;;;;;;-1.04;100.00;151105.47;5057223;28;20458;-76
2021/01/16 01:56:45;;;;;;;16.53;11.37;;;;;;;-1.03;100.00;151108.06;5029932;28;20579;-77
2021/01/16 01:59:23;;;;;;;17.70;11.67;;;;;;;-1.04;100.00;151105.47;5094982;28;20477;-77
2021/01/16 02:01:59;;;;;;;19.13;10.90;;;;;;;-1.06;100.00;151100.34;5070009;28;20929;-76
2021/01/16 02:04:36;;;;;;;13.87;9.80;;;;;;;-1.05;100.00;151102.88;5047978;28;20885;-76
2021/01/16 02:07:22;;;;;;;16.43;10.60;;;;;;;-1.03;100.00;151108.06;5037771;28;20484;-76
2021/01/16 02:09:57;;;;;;;14.10;10.00;;;;;;;-1.02;100.00;151110.59;5104118;27;20449;-77
2021/01/16 02:12:33;;;;;;;19.23;10.57;;;;;;;-1.01;100.00;151113.16;5052560;28;20452;-77
2021/01/16 02:15:17;;;;;;;17.67;11.00;;;;;;;-1.03;100.00;151108.06;5012590;28;20410;-76
2021/01/16 02:17:55;;;;;;;14.70;10.20;;;;;;;-1.01;100.00;151113.16;5068822;28;20479;-76
2021/01/16 02:20:35;;;;;;;16.77;9.97;;;;;;;-1.00;100.00;151115.69;5074587;28;20440;-76
2021/01/16 02:23:33;;;;;;;14.67;10.27;;;;;;;-1.01;100.00;151114.47;5080166;28;20448;-76
2021/01/16 02:26:51;;;;;;;18.30;10.73;;;;;;;-0.98;100.00;151122.09;5080884;28;20462;-76
2021/01/16 02:29:28;;;;;;;15.77;10.67;;;;;;;-0.97;100.00;151123.41;4990625;28;20439;-76
2021/01/16 02:32:06;;;;;;;17.67;10.70;;;;;;;-1.00;100.00;151115.69;5047450;28;20449;-77
2021/01/16 02:34:42;;;;;;;19.13;11.20;;;;;;;-0.98;100.00;151122.09;5080501;28;20439;-77
2021/01/16 02:37:32;;;;;;;16.40;11.97;;;;;;;-1.00;100.00;151117.00;5080178;28;20472;-76
2021/01/16 02:40:15;;;;;;;17.90;10.90;;;;;;;-0.99;100.00;151118.28;5076906;28;20450;-76
2021/01/16 02:43:24;;;;;;;20.10;12.23;;;;;;;-0.99;100.00;151118.28;5078098;28;20765;-77
2021/01/16 02:46:16;;;;;;;18.30;10.60;;;;;;;-0.97;100.00;151123.41;5064461;28;20436;-76
2021/01/16 02:49:04;;;;;;;19.23;10.37;;;;;;;-0.98;100.00;151120.88;5098546;28;20449;-77
2021/01/16 02:51:42;;;;;;;19.40;11.20;;;;;;;-0.97;100.00;151123.41;5072819;28;20443;-76
2021/01/16 02:54:18;;;;;;;15.20;10.77;;;;;;;-0.95;100.00;151129.81;5096566;28;20484;-77
2021/01/16 02:56:53;;;;;;;21.13;12.57;;;;;;;-0.96;100.00;151127.28;5078511;28;20974;-76
2021/01/16 02:59:29;;;;;;;14.67;9.40;;;;;;;-1.00;100.00;151115.69;5079587;28;20474;-77
2021/01/16 03:02:07;;;;;;;17.00;10.63;;;;;;;-1.01;100.00;151114.47;5070054;28;20447;-76
2021/01/16 03:04:42;;;;;;;15.73;11.60;;;;;;;-0.97;100.00;151123.41;5079743;28;20455;-76
2021/01/16 03:07:18;;;;;;;18.13;11.97;;;;;;;-0.97;100.00;151123.41;5044296;28;20789;-76
2021/01/16 03:09:53;;;;;;;16.33;11.63;;;;;;;-0.94;100.00;151131.09;5079230;28;20448;-76
2021/01/16 03:12:29;;;;;;;15.60;11.40;;;;;;;-0.95;100.00;151128.50;5064036;28;20535;-76
2021/01/16 03:15:06;;;;;;;16.47;10.57;;;;;;;-0.96;100.00;151125.97;5079215;28;20449;-77
2021/01/16 03:17:48;;;;;;;17.17;11.10;;;;;;;-1.02;100.00;151110.59;5073933;28;20461;-76
2021/01/16 03:20:25;;;;;;;20.07;11.30;;;;;;;-1.01;100.00;151113.16;5079230;28;20455;-76
2021/01/16 03:23:01;;;;;;;16.83;10.80;;;;;;;-0.98;100.00;151120.88;5079727;28;20802;-76
2021/01/16 03:25:37;;;;;;;17.00;10.63;;;;;;;-0.98;100.00;151120.88;5046018;28;20458;-76
2021/01/16 03:28:12;;;;;;;17.43;11.10;;;;;;;-0.99;100.00;151118.28;5078548;28;20469;-76
2021/01/16 03:30:47;;;;;;;17.47;11.60;;;;;;;-1.03;100.00;151108.06;5011331;28;20436;-76
2021/01/16 03:33:24;;;;;;;14.60;10.50;;;;;;;-0.99;100.00;151118.28;5082259;28;20534;-76
2021/01/16 03:35:59;;;;;;;18.20;11.47;;;;;;;-1.03;100.00;151109.28;5069988;28;20443;-76
2021/01/16 03:38:34;;;;;;;20.13;10.73;;;;;;;-1.01;100.00;151113.16;5067166;28;20820;-76
2021/01/16 03:41:09;;;;;;;16.87;10.87;;;;;;;-0.98;100.00;151120.88;5063403;28;20876;-77
2021/01/16 03:43:44;;;;;;;18.40;11.03;;;;;;;-0.97;100.00;151123.41;5079033;28;20537;-76
2021/01/16 03:46:20;;;;;;;19.97;11.47;;;;;;;-0.99;100.00;151118.28;5031190;28;20816;-76
2021/01/16 03:48:56;;;;;;;19.50;11.27;;;;;;;-0.98;100.00;151120.88;5096072;28;20439;-77
2021/01/16 03:51:32;;;;;;;17.20;11.87;;;;;;;-1.00;100.00;151115.69;5079380;28;20816;-76
2021/01/16 03:54:08;;;;;;;19.47;12.50;;;;;;;-1.03;100.00;151108.06;5078538;28;20451;-77
2021/01/16 03:56:43;;;;;;;17.10;11.40;;;;;;;-1.01;100.00;151113.16;5078286;28;21220;-77
2021/01/16 03:59:18;;;;;;;18.97;12.43;;;;;;;-1.01;100.00;151113.16;5058649;28;20574;-76
2021/01/16 04:01:53;;;;;;;19.40;13.20;;;;;;;-1.01;100.00;151113.16;5067517;28;20602;-76
2021/01/16 04:04:30;;;;;;;19.00;12.23;;;;;;;-1.01;100.00;151113.16;5026984;28;20444;-77
2021/01/16 04:07:06;;;;;;;21.03;13.30;;;;;;;-1.04;100.00;151105.47;5042410;28;20487;-77
2021/01/16 04:09:41;;;;;;;19.10;12.27;;;;;;;-1.05;100.00;151104.19;5095899;28;20457;-77
2021/01/16 04:12:17;;;;;;;24.00;13.13;;;;;;;-0.98;100.00;151120.88;5011092;28;20478;-76
2021/01/16 04:14:52;;;;;;;20.27;12.60;;;;;;;-0.98;100.00;151120.88;5037738;28;20454;-77
2021/01/16 04:17:27;;;;;;;19.80;12.70;;;;;;;-1.01;100.00;151114.47;5010861;28;20527;-76
2021/01/16 04:20:05;;;;;;;19.90;13.20;;;;;;;-0.99;100.00;151118.28;5034862;28;20440;-76
2021/01/16 04:22:41;;;;;;;19.90;14.23;;;;;;;-0.99;100.00;151118.28;5078362;28;21002;-76
2021/01/16 04:25:16;;;;;;;20.03;12.27;;;;;;;-1.01;100.00;151114.47;5088218;28;20456;-76
2021/01/16 04:27:51;;;;;;;21.37;13.33;;;;;;;-1.01;100.00;151113.16;5081214;28;20442;-76
2021/01/16 04:30:26;;;;;;;20.80;13.80;;;;;;;-1.02;100.00;151111.88;5077307;28;20437;-76
2021/01/16 04:33:02;;;;;;;19.10;13.93;;;;;;;-1.01;100.00;151113.16;5078025;28;20444;-77
2021/01/16 04:35:39;;;;;;;23.53;13.63;;;;;;;-1.01;100.00;151113.16;5078120;28;20456;-76
2021/01/16 04:38:14;;;;;;;22.50;12.97;;;;;;;-1.03;100.00;151108.06;5091241;28;20523;-77
2021/01/16 04:40:49;;;;;;;20.90;12.40;;;;;;;-1.03;100.00;151108.06;5075416;28;20445;-76
2021/01/16 04:43:25;;;;;;;20.00;13.47;;;;;;;-1.06;100.00;151101.59;5029786;28;20939;-76
2021/01/16 04:46:05;;;;;;;20.50;12.40;;;;;;;-1.03;100.00;151109.28;5095991;28;20448;-76
2021/01/16 04:48:41;;;;;;;20.63;13.00;;;;;;;-1.02;100.00;151110.59;5076696;28;20468;-76
2021/01/16 04:51:17;;;;;;;21.83;13.43;;;;;;;-1.02;100.00;151110.59;5060586;28;20938;-76
2021/01/16 04:53:54;;;;;;;21.73;13.03;;;;;;;-1.04;100.00;151106.75;5077596;28;20450;-76
2021/01/16 04:56:31;;;;;;;19.90;12.00;;;;;;;-1.04;100.00;151105.47;5075295;28;20567;-76
2021/01/16 04:59:06;;;;;;;19.73;12.00;;;;;;;-1.06;100.00;151100.34;5076409;28;20558;-76
2021/01/16 05:01:42;;;;;;;21.10;13.03;;;;;;;-1.06;100.00;151100.34;5076941;28;20548;-76
2021/01/16 05:04:22;;;;;;;20.37;13.23;;;;;;;-1.07;100.00;151099.06;5091802;28;20427;-76
2021/01/16 05:07:00;;;;;;;19.83;12.70;;;;;;;-1.08;100.00;151095.19;5074427;28;20476;-77
2021/01/16 05:09:37;;;;;;;17.80;11.73;;;;;;;-1.07;100.00;151097.78;5091388;28;20429;-76
2021/01/16 05:12:34;;;;;;;19.90;12.07;;;;;;;-1.06;100.00;151100.34;5107936;28;20448;-77
2021/01/16 05:15:13;;;;;;;17.10;12.13;;;;;;;-1.05;100.00;151104.19;5090813;28;20434;-77
2021/01/16 05:17:54;;;;;;;21.30;14.17;;;;;;;-1.05;100.00;151102.88;5078481;28;20455;-77
2021/01/16 05:20:30;;;;;;;17.30;10.97;;;;;;;-1.07;100.00;151099.06;5091423;28;20426;-77
2021/01/16 05:23:13;;;;;;;22.43;11.97;;;;;;;-1.03;100.00;151108.06;5089525;28;20442;-77
2021/01/16 05:25:50;;;;;;;23.07;13.83;;;;;;;-1.06;100.00;151100.34;5089933;28;20441;-77
2021/01/16 05:28:43;;;;;;;19.20;12.10;;;;;;;-1.06;100.00;151100.34;5088606;28;20436;-77
2021/01/16 05:31:18;;;;;;;24.93;13.50;;;;;;;-1.06;100.00;151101.59;5074976;28;20494;-76
2021/01/16 05:33:53;;;;;;;19.80;13.27;;;;;;;-1.07;100.00;151099.06;5091763;28;20446;-77
2021/01/16 05:36:30;;;;;;;21.10;13.20;;;;;;;-1.08;100.00;151095.19;5090963;28;20445;-77
2021/01/16 05:39:06;;;;;;;22.93;13.13;;;;;;;-1.07;100.00;151097.78;5090744;28;20466;-76
2021/01/16 05:41:43;;;;;;;21.00;12.70;;;;;;;-1.07;100.00;151099.06;5091287;28;20541;-77
2021/01/16 05:44:18;;;;;;;18.83;12.67;;;;;;;-1.08;100.00;151095.19;5055672;28;20431;-77
2021/01/16 05:46:55;;;;;;;21.50;12.80;;;;;;;-1.07;100.00;151097.78;5079875;28;20457;-77
2021/01/16 05:49:30;;;;;;;20.20;12.07;;;;;;;-1.06;100.00;151100.34;5080186;28;20437;-77
2021/01/16 05:52:07;;;;;;;19.33;12.33;;;;;;;-1.09;100.00;151092.66;5090842;28;20448;-77
2021/01/16 05:54:44;;;;;;;14.80;10.83;;;;;;;-1.08;100.00;151095.19;5090667;28;20437;-77
2021/01/16 05:57:21;;;;;;;21.97;13.33;;;;;;;-1.06;100.00;151101.59;5020230;28;20474;-77
2021/01/16 05:59:58;;;;;;;16.53;11.27;;;;;;;-1.07;100.00;151097.78;5053830;28;20510;-76
2021/01/16 06:02:35;;;;;;;19.87;12.70;;;;;;;-1.08;100.00;151095.19;5077501;28;20554;-77
2021/01/16 06:05:12;;;;;;;24.33;13.47;;;;;;;-1.09;100.00;151092.66;5012283;28;20899;-77
2021/01/16 06:07:47;;;;;;;22.97;13.40;;;;;;;-1.08;100.00;151095.19;5069178;28;20541;-77
2021/01/16 06:10:24;;;;;;;20.03;12.83;;;;;;;-1.09;100.00;151092.66;5029398;28;20448;-76
2021/01/16 06:13:13;;;;;;;19.40;12.70;;;;;;;-1.10;100.00;151091.38;5064904;28;20559;-76
2021/01/16 06:15:49;;;;;;;18.50;12.10;;;;;;;-1.08;100.00;151095.19;5080487;28;20541;-76
2021/01/16 06:18:30;;;;;;;21.97;12.73;;;;;;;-1.11;100.00;151087.53;5056226;28;20467;-76
2021/01/16 06:21:06;;;;;;;22.53;13.07;;;;;;;-1.15;100.00;151077.25;5038418;28;20563;-76
2021/01/16 06:23:43;;;;;;;22.57;13.60;;;;;;;-1.14;100.00;151079.84;5097446;28;20533;-76
2021/01/16 06:26:20;;;;;;;19.90;13.27;;;;;;;-1.13;100.00;151083.66;5012211;28;20449;-76
2021/01/16 06:28:57;;;;;;;23.67;13.33;;;;;;;-1.13;100.00;151082.38;5080241;28;20460;-78
2021/01/16 06:31:34;;;;;;;19.23;12.80;;;;;;;-1.13;100.00;151083.66;5097625;28;20460;-78
2021/01/16 06:34:09;;;;;;;20.53;12.13;;;;;;;-1.14;100.00;151079.84;5080477;28;20531;-78
2021/01/16 06:36:54;;;;;;;23.60;13.23;;;;;;;-1.13;100.00;151083.66;5083548;28;20547;-78
2021/01/16 06:39:34;;;;;;;21.77;13.97;;;;;;;-1.11;100.00;151087.53;5010564;28;20484;-77
2021/01/16 06:42:12;;;;;;;20.83;12.40;;;;;;;-1.13;100.00;151083.66;5062562;28;20442;-78
2021/01/16 06:44:48;;;;;;;21.90;13.10;;;;;;;-1.14;100.00;151081.13;4992809;28;20422;-77
2021/01/16 06:47:27;;;;;;;21.00;13.47;;;;;;;-1.13;100.00;151082.38;5073350;28;20442;-78
2021/01/16 06:50:04;;;;;;;23.10;12.60;;;;;;;-1.12;100.00;151086.25;5114976;28;20446;-78
2021/01/16 06:52:40;;;;;;;21.30;12.37;;;;;;;-1.11;100.00;151088.78;5040313;28;20435;-79
2021/01/16 06:55:18;;;;;;;23.67;13.87;;;;;;;-1.16;100.00;151074.66;5079640;28;20854;-78
2021/01/16 06:57:54;;;;;;;24.67;13.43;;;;;;;-1.13;100.00;151082.38;5061104;28;20438;-78
2021/01/16 07:00:30;;;;;;;24.80;14.80;;;;;;;-1.13;100.00;151082.38;5095870;28;20447;-77
2021/01/16 07:03:07;;;;;;;22.10;13.83;;;;;;;-1.13;100.00;151082.38;5011345;28;20760;-78
2021/01/16 07:05:43;;;;;;;20.70;12.50;;;;;;;-1.14;100.00;151081.13;5034440;28;20452;-77
2021/01/16 07:08:18;;;;;;;20.53;13.73;;;;;;;-1.14;100.00;151081.13;5079471;28;20432;-78
2021/01/16 07:10:53;;;;;;;23.87;14.10;;;;;;;-1.15;100.00;151078.56;5076732;28;20446;-78
2021/01/16 07:13:33;;;;;;;19.60;12.53;;;;;;;-1.15;100.00;151077.25;5079995;28;20435;-78
2021/01/16 07:16:08;;;;;;;24.60;13.63;;;;;;;-1.15;100.00;151078.56;5013465;28;20490;-77
2021/01/16 07:18:44;;;;;;;22.43;13.50;;;;;;;-1.16;100.00;151074.66;5079167;28;21228;-77
2021/01/16 07:21:20;;;;;;;23.90;13.80;;;;;;;-1.15;100.00;151078.56;5063927;28;20437;-78
2021/01/16 07:23:55;;;;;;;19.47;11.90;;;;;;;-1.14;100.00;151079.84;5059518;28;20531;-78
2021/01/16 07:26:31;;;;;;;22.23;13.30;;;;;;;-1.14;100.00;151079.84;5064613;28;20881;-78
2021/01/16 07:29:09;;;;;;;21.60;13.67;;;;;;;-1.15;100.00;151077.25;5078780;28;20492;-78
2021/01/16 07:31:46;;;;;;;22.30;13.63;;;;;;;-1.12;100.00;151084.97;5079602;28;20453;-77
2021/01/16 07:34:22;;;;;;;22.20;13.97;;;;;;;-1.16;100.00;151074.66;5059826;28;20445;-77
2021/01/16 07:36:58;;;;;;;21.77;13.30;;;;;;;-1.15;100.00;151077.25;5069494;28;20489;-77
2021/01/16 07:39:34;;;;;;;23.73;13.60;;;;;;;-1.13;100.00;151082.38;5073545;28;21005;-77
2021/01/16 07:42:14;;;;;;;21.47;13.40;;;;;;;-1.14;100.00;151081.13;5009928;28;20451;-77
2021/01/16 07:45:04;;;;;;;23.30;14.23;;;;;;;-1.11;100.00;151087.53;5058306;28;20504;-77
2021/01/16 07:47:41;;;;;;;19.97;12.57;;;;;;;-1.10;100.00;151090.06;5082334;28;20453;-77
2021/01/16 07:50:21;;;;;;;25.17;13.97;;;;;;;-1.10;100.00;151090.06;5094333;28;20453;-78
2021/01/16 07:53:02;;;;;;;23.87;14.27;;;;;;;-1.12;100.00;151084.97;5094308;28;20434;-78
2021/01/16 07:55:46;;;;;;;18.90;13.00;;;;;;;-1.12;100.00;151084.97;5077694;28;20477;-78
2021/01/16 07:58:30;;;;;;;21.07;13.10;;;;;;;-1.09;100.00;151093.94;5065401;28;20878;-77
2021/01/16 08:01:25;;;;;;;22.90;13.87;;;;;;;-1.13;100.00;151082.38;5034993;28;20507;-77
2021/01/16 08:04:25;;;;;;;17.40;12.40;;;;;;;-1.15;100.00;151078.56;5077388;28;20535;-78
2021/01/16 08:07:03;;;;;;;20.33;12.87;;;;;;;-1.10;100.00;151090.06;5067034;28;20815;-77
2021/01/16 08:09:53;;;;;;;20.63;11.90;;;;;;;-1.11;100.00;151087.53;5071020;28;20453;-77
2021/01/16 08:12:29;;;;;;;18.50;12.80;;;;;;;-1.11;100.00;151088.78;5069117;28;20444;-77
2021/01/16 08:15:06;;;;;;;19.53;13.80;;;;;;;-1.10;100.00;151091.38;5077519;28;20829;-78
2021/01/16 08:17:43;;;;;;;21.93;13.70;;;;;;;-1.09;100.00;151092.66;5054302;28;20449;-78
2021/01/16 08:20:27;;;;;;;18.80;12.30;;;;;;;-1.10;100.00;151090.06;5094017;28;20424;-77
2021/01/16 08:23:04;;;;;;;19.57;13.23;;;;;;;-1.09;100.00;151092.66;5033702;28;21185;-78
2021/01/16 08:25:39;;;;;;;19.50;12.73;;;;;;;-1.07;100.00;151097.78;5021335;28;20537;-78
2021/01/16 08:28:23;;;;;;;21.80;13.77;;;;;;;-1.07;100.00;151097.78;5072377;28;20454;-78
2021/01/16 08:30:58;;;;;;;21.10;13.43;;;;;;;-1.07;100.00;151097.78;5059711;28;20452;-77
2021/01/16 08:33:35;;;;;;;20.40;12.50;;;;;;;-1.10;100.00;151090.06;5091226;28;20453;-78
2021/01/16 08:36:18;;;;;;;23.20;13.13;;;;;;;-1.10;100.00;151091.38;5074489;28;20446;-78
2021/01/16 08:38:53;;;;;;;22.27;11.80;;;;;;;-1.06;100.00;151100.34;5091228;28;20479;-78
2021/01/16 08:41:28;;;;;;;23.33;12.80;;;;;;;-1.06;100.00;151101.59;5082412;28;20456;-78
2021/01/16 08:44:04;;;;;;;20.63;13.30;;;;;;;-1.04;100.00;151105.47;5092333;28;20449;-78
2021/01/16 08:46:39;;;;;;;22.70;13.83;;;;;;;-1.04;100.00;151105.47;5073632;28;20463;-78
2021/01/16 08:49:17;;;;;;;19.40;13.80;;;;;;;-1.02;100.00;151110.59;5086346;28;20459;-78
2021/01/16 08:51:53;;;;;;;18.10;12.73;;;;;;;-1.03;100.00;151109.28;5068775;28;20974;-78
2021/01/16 08:54:28;;;;;;;20.80;14.33;;;;;;;-1.05;100.00;151102.88;5079747;28;20452;-78
2021/01/16 08:57:14;;;;;;;19.93;12.90;;;;;;;-1.02;100.00;151111.88;5080896;28;20476;-78
2021/01/16 08:59:50;;;;;;;20.30;13.03;;;;;;;-0.96;100.00;151125.97;5063302;28;20500;-78
2021/01/16 09:02:26;;;;;;;18.47;12.50;;;;;;;-0.97;100.00;151124.69;5059823;28;21007;-78
2021/01/16 09:05:03;;;;;;;19.27;13.67;;;;;;;-0.96;100.00;151125.97;5055333;28;20441;-78
2021/01/16 09:07:41;;;;;;;19.57;13.07;;;;;;;-0.95;100.00;151129.81;5050235;28;20441;-77
2021/01/16 09:10:22;;;;;;;19.93;12.87;;;;;;;-0.93;100.00;151133.69;5041675;28;20427;-78
2021/01/16 09:12:59;;;;;;;17.83;13.33;;;;;;;-0.92;100.00;151137.50;5054605;28;20460;-78
2021/01/16 09:15:39;;;;;;;20.57;14.47;;;;;;;-0.94;100.00;151131.09;5063018;28;20890;-78
2021/01/16 09:18:16;;;;;;;20.13;14.40;;;;;;;-0.90;100.00;151141.38;5074310;28;20436;-78
2021/01/16 09:21:00;;;;;;;22.73;14.43;;;;;;;-0.89;100.00;151143.91;5079691;28;20457;-78
2021/01/16 09:23:37;;;;;;;22.17;13.60;;;;;;;-0.85;100.00;151154.19;5103159;28;20498;-78
2021/01/16 09:26:17;;;;;;;19.83;13.60;;;;;;;-0.82;100.00;151161.91;5089386;28;20438;-78
2021/01/16 09:28:53;;;;;;;21.80;13.93;;;;;;;-0.85;100.00;151155.44;5076228;28;20939;-77
2021/01/16 09:31:31;;;;;;;24.43;15.50;;;;;;;-0.82;100.00;151163.16;5070343;28;20442;-77
2021/01/16 09:34:09;;;;;;;24.73;13.60;;;;;;;-0.82;100.00;151161.91;5082890;28;20454;-78
2021/01/16 09:36:47;;;;;;;21.97;12.77;;;;;;;-0.81;100.00;151165.72;5098685;28;20448;-78
2021/01/16 09:39:24;;;;;;;21.10;13.73;;;;;;;-0.79;100.00;151169.56;5103963;28;20471;-77
2021/01/16 09:42:01;;;;;;;23.73;14.20;;;;;;;-0.75;100.00;151179.84;5091269;28;20790;-78
2021/01/16 09:44:54;;;;;;;18.20;12.90;;;;;;;-0.75;100.00;151179.84;5068548;28;20450;-78
2021/01/16 09:47:54;;;;;;;19.60;12.50;;;;;;;-0.75;100.00;151179.84;5065795;28;20450;-77
2021/01/16 09:50:29;;;;;;;20.60;13.23;;;;;;;-0.71;100.00;151190.06;5014849;28;20443;-78
2021/01/16 09:53:06;;;;;;;22.13;12.93;;;;;;;-0.71;100.00;151190.06;5062735;28;20787;-78
2021/01/16 09:55:41;;;;;;;19.30;12.50;;;;;;;-0.65;100.00;151206.75;5083995;28;20461;-78
2021/01/16 09:58:30;;;;;;;19.83;13.70;;;;;;;-0.61;100.00;151217.00;5065001;28;20473;-78
2021/01/16 10:01:16;;;;;;;22.20;13.60;;;;;;;-0.61;100.00;151217.00;5069941;28;20451;-78
2021/01/16 10:03:52;;;;;;;16.93;11.33;;;;;;;-0.53;100.00;151236.22;5088955;28;20850;-78
2021/01/16 10:06:33;;;;;;;18.40;11.53;;;;;;;-0.54;100.00;151233.69;5011651;28;20440;-78
2021/01/16 10:09:19;;;;;;;17.57;12.10;;;;;;;-0.50;100.00;151242.69;5081104;28;20837;-77
2021/01/16 10:11:55;;;;;;;18.53;12.13;;;;;;;-0.46;100.00;151254.22;5015739;28;20444;-78
2021/01/16 10:14:36;;;;;;;18.90;11.40;;;;;;;-0.44;100.00;151258.03;5036692;28;20448;-78
2021/01/16 10:17:12;;;;;;;14.80;9.77;;;;;;;-0.43;99.07;151261.94;5044173;28;20453;-78
2021/01/16 10:19:48;;;;;;;12.43;9.00;;;;;;;-0.41;99.26;151267.03;5080198;28;20552;-78
2021/01/16 10:22:29;;;;;;;10.97;7.97;;;;;;;-0.43;96.12;151261.94;5050803;28;20538;-78
2021/01/16 10:25:11;;;;;;;11.43;7.40;;;;;;;-0.39;96.22;151270.88;5004389;28;20910;-78
2021/01/16 10:27:49;;;;;;;11.73;7.60;;;;;;;-0.40;96.29;151269.63;5012986;28;20543;-78
2021/01/16 10:30:30;;;;;;;12.20;8.23;;;;;;;-0.30;97.94;151295.28;5053379;28;20800;-77
2021/01/16 10:33:19;;;;;;;12.00;7.63;;;;;;;-0.28;97.08;151300.41;5059612;28;20460;-78
2021/01/16 10:36:05;;;;;;;11.83;7.93;;;;;;;-0.27;94.55;151302.97;5079700;28;20425;-78
2021/01/16 10:38:46;;;;;;;12.10;7.67;;;;;;;-0.18;95.86;151326.03;5095729;28;20493;-78
2021/01/16 10:41:34;;;;;;;11.70;7.37;;;;;;;-0.14;96.89;151335.03;5079347;28;21011;-77
2021/01/16 10:44:11;;;;;;;13.73;8.10;;;;;;;-0.14;94.26;151335.03;5080063;28;20448;-77
2021/01/16 10:46:48;;;;;;;13.57;7.80;;;;;;;-0.09;95.54;151347.88;5066385;28;20443;-77
2021/01/16 10:49:24;;;;;;;12.00;6.87;;;;;;;-0.08;95.52;151351.69;5069419;28;20811;-77
2021/01/16 10:52:04;;;;;;;8.83;6.90;;;;;;;-0.10;91.93;151346.56;5061103;28;20438;-77
2021/01/16 10:54:57;;;;;;;10.07;6.90;;;;;;;-0.04;92.14;151361.97;5020823;28;20983;-77
2021/01/16 10:57:46;;;;;;;8.57;6.57;;;;;;;-0.04;91.61;151361.97;5089181;28;20472;-77
2021/01/16 11:00:22;;;;;;;9.67;7.37;;;;;;;-0.01;90.85;151369.69;5010566;28;22183;-77
2021/01/16 11:02:58;;;;;;;9.77;7.43;;;;;;;0.06;93.40;151386.34;5088012;28;20484;-77
2021/01/16 11:05:35;;;;;;;10.93;7.57;;;;;;;0.07;91.41;151388.94;5080668;28;20452;-76
2021/01/16 11:08:19;;;;;;;10.20;7.07;;;;;;;0.06;89.27;151386.34;5063696;28;20441;-76
2021/01/16 11:10:55;;;;;;;10.57;6.50;;;;;;;0.11;91.86;151397.94;5063530;28;20471;-76
2021/01/16 11:13:33;;;;;;;10.50;7.07;;;;;;;0.13;92.59;151403.06;5079746;28;20867;-76
2021/01/16 11:16:14;;;;;;;9.00;6.63;;;;;;;0.13;93.48;151403.06;5079265;28;20790;-77
2021/01/16 11:18:50;;;;;;;9.70;6.87;;;;;;;0.13;90.48;151403.06;5097101;28;20968;-76
2021/01/16 11:21:49;;;;;;;8.27;5.93;;;;;;;0.13;92.60;151403.06;5094472;28;20446;-76
2021/01/16 11:25:02;;;;;;;8.87;6.90;;;;;;;0.14;87.65;151405.59;5079095;28;20454;-76
2021/01/16 11:27:39;;;;;;;8.03;6.33;;;;;;;0.19;87.28;151418.41;5060175;28;20449;-76
2021/01/16 11:30:17;;;;;;;8.80;6.37;;;;;;;0.23;87.01;151430.00;5011579;28;20471;-76
2021/01/16 11:32:54;;;;;;;8.37;6.07;;;;;;;0.28;86.83;151442.84;5089566;28;20552;-76
2021/01/16 11:35:38;;;;;;;11.30;6.80;;;;;;;0.31;86.43;151449.25;5078591;28;20432;-76
2021/01/16 11:38:39;;;;;;;9.77;6.30;;;;;;;0.37;84.83;151464.66;5078334;28;20448;-76
2021/01/16 11:41:15;;;;;;;9.00;6.47;;;;;;;0.40;87.29;151472.31;5073266;28;20438;-77
2021/01/16 11:43:57;;;;;;;9.10;5.93;;;;;;;0.34;83.31;151456.97;5062408;28;20449;-77
2021/01/16 11:46:35;;;;;;;7.97;5.93;;;;;;;0.37;81.69;151465.91;5064015;28;20445;-77
2021/01/16 11:49:10;;;;;;;6.80;4.73;;;;;;;0.38;86.83;151468.50;5041606;28;20472;-77
2021/01/16 11:51:46;;;;;;;7.40;5.50;;;;;;;0.35;85.86;151460.78;5019140;28;20775;-77
2021/01/16 11:54:26;;;;;;;5.73;4.10;;;;;;;0.28;81.95;151441.53;5067534;28;20454;-77
2021/01/16 11:57:03;;;;;;;8.43;5.20;;;;;;;0.23;79.79;151428.72;5052281;28;20473;-77